createdAt,value
2022-10-18T00:01:49.839Z,66.02
2022-10-18T00:11:51.984Z,67.25
2022-10-18T00:21:54.050Z,67.93
2022-10-18T00:31:56.142Z,69.61
2022-10-18T00:41:58.321Z,69.51
2022-10-18T00:52:05.204Z,72.24
2022-10-18T01:02:08.168Z,72.42
2022-10-18T01:12:28.992Z,73.99
2022-10-18T01:22:44.726Z,74.01
2022-10-18T01:32:52.022Z,75.69
2022-10-18T01:42:54.562Z,76.40
2022-10-18T01:52:57.458Z,77.25
2022-10-18T02:03:07.012Z,76.66
2022-10-18T02:13:12.939Z,78.28
2022-10-18T02:23:18.712Z,77.58
2022-10-18T02:33:33.541Z,77.47
2022-10-18T02:43:35.686Z,77.90
2022-10-18T02:53:37.747Z,79.24
2022-10-18T03:03:39.918Z,78.89
2022-10-18T03:13:42.047Z,79.34
2022-10-18T03:23:44.133Z,81.12
2022-10-18T03:33:46.549Z,80.62
2022-10-18T03:43:48.819Z,79.85
2022-10-18T03:53:50.892Z,79.75
2022-10-18T04:03:52.955Z,78.02
2022-10-18T04:13:55.024Z,79.07
2022-10-18T04:23:57.112Z,77.83
2022-10-18T04:33:59.194Z,79.61
2022-10-18T04:44:01.260Z,78.71
2022-10-18T04:54:03.378Z,79.43
2022-10-18T05:04:05.524Z,78.96
2022-10-18T05:14:10.264Z,78.85
2022-10-18T05:24:12.483Z,79.61
2022-10-18T05:34:14.608Z,84.07
2022-10-18T05:44:16.731Z,81.30
2022-10-18T05:54:21.050Z,82.64
2022-10-18T06:04:23.140Z,81.82
2022-10-18T06:14:25.240Z,82.41
2022-10-18T06:24:27.906Z,81.10
2022-10-18T06:34:30.109Z,82.32
2022-10-18T06:44:32.195Z,83.15
2022-10-18T06:54:34.651Z,83.32
2022-10-18T07:04:36.733Z,82.69
2022-10-18T07:14:38.837Z,81.96
2022-10-18T07:24:41.439Z,80.85
2022-10-18T07:34:43.598Z,79.87
2022-10-18T07:44:45.694Z,79.66
2022-10-18T07:54:47.775Z,78.10
2022-10-18T08:04:49.894Z,76.66
2022-10-18T08:14:52.000Z,75.99
2022-10-18T08:24:54.106Z,74.06
2022-10-18T08:34:56.229Z,73.50
2022-10-18T08:44:58.371Z,70.18
2022-10-18T08:55:41.958Z,66.81
2022-10-18T09:06:01.301Z,59.60
2022-10-18T09:16:06.451Z,60.46
2022-10-18T09:26:16.609Z,62.25
2022-10-18T09:36:23.580Z,62.89
2022-10-18T09:46:31.461Z,61.39
2022-10-18T09:56:41.730Z,58.94
2022-10-18T10:06:53.479Z,59.67
2022-10-18T10:16:59.745Z,59.27
2022-10-18T10:27:05.479Z,59.24
2022-10-18T10:37:31.296Z,58.75
2022-10-18T10:47:36.800Z,58.71
2022-10-18T10:57:39.105Z,58.55
2022-10-18T11:07:44.540Z,58.88
2022-10-18T11:18:00.530Z,61.45
2022-10-18T11:28:50.789Z,61.31
2022-10-18T11:38:52.847Z,61.11
2022-10-18T11:49:25.900Z,58.54
2022-10-18T11:59:37.138Z,52.25
2022-10-18T12:09:42.377Z,50.29
2022-10-18T12:19:46.534Z,48.65
2022-10-18T12:30:02.230Z,48.96
2022-10-18T12:40:18.464Z,48.57
2022-10-18T12:50:37.880Z,48.97
2022-10-18T13:00:42.133Z,50.50
2022-10-18T13:10:44.564Z,52.57
2022-10-18T13:20:54.635Z,56.52
2022-10-18T13:31:00.012Z,57.79
2022-10-18T13:41:17.812Z,60.10
2022-10-18T13:51:46.548Z,63.44
2022-10-18T14:02:36.456Z,71.93
2022-10-18T14:12:47.796Z,74.60
2022-10-18T14:22:53.765Z,73.95
2022-10-18T14:32:56.036Z,75.33
2022-10-18T14:43:03.860Z,73.97
2022-10-18T14:53:09.507Z,74.31
2022-10-18T15:03:15.658Z,74.53
2022-10-18T15:13:18.074Z,74.64
2022-10-18T15:23:31.356Z,75.40
2022-10-18T15:33:36.709Z,76.00
2022-10-18T15:43:39.155Z,76.85
2022-10-18T15:53:45.657Z,77.82
2022-10-18T16:03:48.825Z,78.61
2022-10-18T16:13:55.180Z,78.60
2022-10-18T16:24:00.977Z,79.22
2022-10-18T16:34:03.646Z,78.30
2022-10-18T16:44:06.078Z,79.00
2022-10-18T16:54:08.291Z,78.59
2022-10-18T17:04:10.371Z,78.83
2022-10-18T17:14:12.451Z,79.20
2022-10-18T17:24:14.549Z,78.82
2022-10-18T17:34:21.404Z,79.42
2022-10-18T17:44:24.366Z,78.98
2022-10-18T17:54:26.787Z,80.05
2022-10-18T18:04:28.944Z,79.39
2022-10-18T18:14:31.074Z,80.46
2022-10-18T18:24:33.196Z,80.46
2022-10-18T18:34:36.748Z,80.40
2022-10-18T18:44:39.029Z,80.36
2022-10-18T18:54:41.161Z,80.58
2022-10-18T19:04:43.248Z,81.76
2022-10-18T19:14:47.062Z,80.09
2022-10-18T19:24:49.165Z,80.06
2022-10-18T19:34:52.095Z,82.58
2022-10-18T19:44:54.230Z,83.29
2022-10-18T19:54:56.333Z,82.42
2022-10-18T20:04:58.391Z,82.89
2022-10-18T20:15:00.580Z,82.14
2022-10-18T20:25:02.739Z,83.21
2022-10-18T20:40:12.347Z,83.21
2022-10-18T20:50:14.521Z,82.13
2022-10-18T21:00:16.639Z,81.68
2022-10-18T21:10:18.810Z,81.18
2022-10-18T21:20:20.866Z,81.43
2022-10-18T21:30:23.024Z,82.21
2022-10-18T21:40:25.389Z,80.70
2022-10-18T21:50:27.465Z,80.68
2022-10-18T22:00:29.777Z,82.11
2022-10-18T22:10:32.688Z,82.12
2022-10-18T22:20:34.854Z,82.39
2022-10-18T22:30:38.172Z,83.15
2022-10-18T22:40:40.237Z,83.68
2022-10-18T22:50:42.461Z,82.90
2022-10-18T23:00:44.690Z,82.47
2022-10-18T23:10:46.837Z,81.94
2022-10-18T23:20:48.950Z,82.28
2022-10-18T23:30:51.015Z,81.66
2022-10-18T23:40:53.079Z,80.94
2022-10-18T23:50:55.172Z,80.88
